SVR247 URSS-UGTB
Flight info
| Callsign | SVR247 |
|---|---|
| Flight time | 0h 49m |
| Altitude | 35000 |
| Route | TABAN1C TABAN B147 BANUT L850 TAGAR DCT GIMUR |
| Aircraft | A20N/M-SDE2E3FGHIRWXY/LB1 |
Departure
| Time | 2026-04-24 05:05 |
|---|---|
| Airport | Sochi International Airport (URSS) |
Arrival
| Time | 2026-04-24 05:54 |
|---|---|
| Airport | Tbilisi International Airport (UGTB) |
| Time | Latitude | Longitude | Altitude | Speed | Heading |
|---|---|---|---|---|---|
| 2026-04-24 04:42 | 43.44857 | 39.94493 | 48 ft | 0 kts | 334° |
| 2026-04-24 04:57 | 43.44846 | 39.94501 | 48 ft | 2 kts | 334° |
| 2026-04-24 04:57 | 43.44832 | 39.94510 | 48 ft | 2 kts | 335° |
| 2026-04-24 04:58 | 43.44819 | 39.94519 | 48 ft | 2 kts | 334° |
| 2026-04-24 04:58 | 43.44805 | 39.94527 | 48 ft | 1 kts | 335° |
| 2026-04-24 04:58 | 43.44794 | 39.94532 | 48 ft | 1 kts | 17° |
| 2026-04-24 04:58 | 43.44786 | 39.94523 | 48 ft | 1 kts | 75° |
| 2026-04-24 04:59 | 43.44785 | 39.94508 | 47 ft | 0 kts | 71° |
| 2026-04-24 04:59 | 43.44783 | 39.94503 | 47 ft | 0 kts | 64° |
| 2026-04-24 05:01 | 43.44783 | 39.94504 | 47 ft | 0 kts | 68° |
| 2026-04-24 05:01 | 43.44784 | 39.94506 | 47 ft | 0 kts | 68° |
| 2026-04-24 05:01 | 43.44789 | 39.94524 | 48 ft | 4 kts | 68° |
| 2026-04-24 05:01 | 43.44807 | 39.94582 | 48 ft | 8 kts | 66° |
| 2026-04-24 05:02 | 43.44841 | 39.94679 | 49 ft | 13 kts | 64° |
| 2026-04-24 05:02 | 43.44872 | 39.94766 | 49 ft | 6 kts | 64° |
| 2026-04-24 05:02 | 43.44901 | 39.94850 | 50 ft | 12 kts | 65° |
| 2026-04-24 05:02 | 43.44943 | 39.94974 | 50 ft | 14 kts | 65° |
| 2026-04-24 05:03 | 43.44998 | 39.95085 | 51 ft | 14 kts | 54° |
| 2026-04-24 05:03 | 43.45047 | 39.95225 | 53 ft | 18 kts | 66° |
| 2026-04-24 05:03 | 43.45099 | 39.95371 | 54 ft | 17 kts | 62° |
| 2026-04-24 05:03 | 43.45167 | 39.95513 | 55 ft | 19 kts | 56° |
| 2026-04-24 05:04 | 43.45233 | 39.95655 | 55 ft | 18 kts | 58° |
| 2026-04-24 05:04 | 43.45300 | 39.95800 | 56 ft | 13 kts | 58° |
| 2026-04-24 05:04 | 43.45295 | 39.95850 | 56 ft | 5 kts | 175° |
| 2026-04-24 05:04 | 43.45249 | 39.95822 | 56 ft | 22 kts | 211° |
| 2026-04-24 05:05 | 43.44843 | 39.95520 | 53 ft | 106 kts | 209° |
| 2026-04-24 05:05 | 43.43997 | 39.94881 | 130 ft | 161 kts | 206° |
| 2026-04-24 05:05 | 43.42977 | 39.94133 | 731 ft | 172 kts | 206° |
| 2026-04-24 05:05 | 43.41906 | 39.93437 | 1622 ft | 172 kts | 192° |
| 2026-04-24 05:06 | 43.40781 | 39.93700 | 2500 ft | 175 kts | 148° |
| 2026-04-24 05:06 | 43.39817 | 39.94792 | 3132 ft | 187 kts | 147° |
| 2026-04-24 05:06 | 43.38560 | 39.95359 | 3569 ft | 203 kts | 182° |
| 2026-04-24 05:06 | 43.37135 | 39.94789 | 4056 ft | 222 kts | 205° |
| 2026-04-24 05:07 | 43.35687 | 39.93841 | 4635 ft | 240 kts | 204° |
| 2026-04-24 05:07 | 43.34085 | 39.92962 | 5281 ft | 254 kts | 200° |
| 2026-04-24 05:07 | 43.32405 | 39.92207 | 6167 ft | 258 kts | 198° |
| 2026-04-24 05:07 | 43.30697 | 39.91538 | 7101 ft | 260 kts | 197° |
| 2026-04-24 05:08 | 43.28953 | 39.90902 | 8000 ft | 263 kts | 197° |
| 2026-04-24 05:08 | 43.27195 | 39.90281 | 8852 ft | 266 kts | 198° |
| 2026-04-24 05:08 | 43.25392 | 39.89652 | 9710 ft | 269 kts | 198° |
| 2026-04-24 05:08 | 43.23651 | 39.88836 | 10468 ft | 270 kts | 212° |
| 2026-04-24 05:09 | 43.22141 | 39.87269 | 10952 ft | 280 kts | 230° |
| 2026-04-24 05:09 | 43.20932 | 39.85101 | 11353 ft | 295 kts | 237° |
| 2026-04-24 05:09 | 43.19713 | 39.82740 | 11744 ft | 312 kts | 237° |
| 2026-04-24 05:09 | 43.18430 | 39.80271 | 12359 ft | 320 kts | 237° |
| 2026-04-24 05:10 | 43.17135 | 39.77799 | 13188 ft | 321 kts | 237° |
| 2026-04-24 05:10 | 43.15837 | 39.75336 | 14001 ft | 321 kts | 237° |
| 2026-04-24 05:10 | 43.14456 | 39.72886 | 14742 ft | 326 kts | 229° |
| 2026-04-24 05:10 | 43.12590 | 39.71089 | 15418 ft | 338 kts | 210° |
| 2026-04-24 05:11 | 43.10287 | 39.70227 | 16112 ft | 353 kts | 192° |
| 2026-04-24 05:11 | 43.07820 | 39.70496 | 16738 ft | 371 kts | 172° |
| 2026-04-24 05:11 | 43.05420 | 39.72068 | 17307 ft | 392 kts | 148° |
| 2026-04-24 05:11 | 43.03568 | 39.74886 | 17876 ft | 411 kts | 124° |
| 2026-04-24 05:12 | 43.02619 | 39.78596 | 18443 ft | 423 kts | 101° |
| 2026-04-24 05:12 | 43.02230 | 39.82490 | 19227 ft | 420 kts | 103° |
| 2026-04-24 05:12 | 43.01598 | 39.86371 | 19899 ft | 420 kts | 107° |
| 2026-04-24 05:12 | 43.00851 | 39.90230 | 20461 ft | 423 kts | 110° |
| 2026-04-24 05:13 | 42.99085 | 39.98006 | 21581 ft | 429 kts | 112° |
| 2026-04-24 05:13 | 42.98196 | 40.01922 | 22099 ft | 434 kts | 111° |
| 2026-04-24 05:13 | 42.97342 | 40.05864 | 22616 ft | 438 kts | 110° |
| 2026-04-24 05:14 | 42.96486 | 40.09857 | 23112 ft | 442 kts | 111° |
| 2026-04-24 05:14 | 42.95625 | 40.13871 | 23598 ft | 445 kts | 111° |
| 2026-04-24 05:14 | 42.94746 | 40.17925 | 24106 ft | 447 kts | 111° |
| 2026-04-24 05:14 | 42.93859 | 40.22031 | 24569 ft | 452 kts | 111° |
| 2026-04-24 05:15 | 42.92967 | 40.26157 | 24987 ft | 456 kts | 111° |
| 2026-04-24 05:15 | 42.92075 | 40.30265 | 25439 ft | 459 kts | 111° |
| 2026-04-24 05:15 | 42.91160 | 40.34471 | 25895 ft | 462 kts | 111° |
| 2026-04-24 05:15 | 42.90240 | 40.38685 | 26330 ft | 465 kts | 111° |
| 2026-04-24 05:16 | 42.89307 | 40.42924 | 26727 ft | 469 kts | 112° |
| 2026-04-24 05:16 | 42.88358 | 40.47170 | 27109 ft | 472 kts | 112° |
| 2026-04-24 05:16 | 42.87398 | 40.51472 | 27502 ft | 475 kts | 112° |
| 2026-04-24 05:16 | 42.86443 | 40.55768 | 27926 ft | 477 kts | 112° |
| 2026-04-24 05:17 | 42.85473 | 40.60138 | 28300 ft | 480 kts | 112° |
| 2026-04-24 05:17 | 42.84513 | 40.64455 | 28657 ft | 484 kts | 112° |
| 2026-04-24 05:17 | 42.83543 | 40.68845 | 29069 ft | 485 kts | 113° |
| 2026-04-24 05:17 | 42.82573 | 40.73237 | 29594 ft | 482 kts | 113° |
| 2026-04-24 05:18 | 42.81608 | 40.77601 | 30081 ft | 481 kts | 114° |
| 2026-04-24 05:18 | 42.80644 | 40.81938 | 30528 ft | 481 kts | 114° |
| 2026-04-24 05:18 | 42.79674 | 40.86279 | 30955 ft | 481 kts | 114° |
| 2026-04-24 05:18 | 42.78696 | 40.90640 | 31326 ft | 480 kts | 114° |
| 2026-04-24 05:19 | 42.77729 | 40.94941 | 31693 ft | 480 kts | 114° |
| 2026-04-24 05:19 | 42.76748 | 40.99303 | 32033 ft | 480 kts | 114° |
| 2026-04-24 05:19 | 42.75776 | 41.03610 | 32344 ft | 480 kts | 114° |
| 2026-04-24 05:19 | 42.74801 | 41.07923 | 32592 ft | 481 kts | 113° |
| 2026-04-24 05:20 | 42.73813 | 41.12290 | 32897 ft | 480 kts | 113° |
| 2026-04-24 05:20 | 42.72839 | 41.16589 | 33196 ft | 479 kts | 113° |
| 2026-04-24 05:20 | 42.71851 | 41.20937 | 33430 ft | 480 kts | 113° |
| 2026-04-24 05:20 | 42.70867 | 41.25250 | 33621 ft | 482 kts | 113° |
| 2026-04-24 05:21 | 42.69877 | 41.29604 | 33827 ft | 484 kts | 113° |
| 2026-04-24 05:21 | 42.68871 | 41.33996 | 34030 ft | 486 kts | 112° |
| 2026-04-24 05:21 | 42.67872 | 41.38369 | 34198 ft | 487 kts | 113° |
| 2026-04-24 05:21 | 42.66865 | 41.42760 | 34456 ft | 488 kts | 112° |
| 2026-04-24 05:22 | 42.65862 | 41.47115 | 34642 ft | 489 kts | 112° |
| 2026-04-24 05:22 | 42.64842 | 41.51545 | 34852 ft | 490 kts | 112° |
| 2026-04-24 05:22 | 42.63823 | 41.55958 | 35020 ft | 491 kts | 112° |
| 2026-04-24 05:23 | 42.61769 | 41.64840 | 35064 ft | 493 kts | 112° |
| 2026-04-24 05:23 | 42.59728 | 41.73676 | 35085 ft | 493 kts | 113° |
| 2026-04-24 05:24 | 42.57672 | 41.82519 | 35056 ft | 493 kts | 113° |
| 2026-04-24 05:24 | 42.55594 | 41.91405 | 35064 ft | 494 kts | 113° |
| 2026-04-24 05:25 | 42.53530 | 42.00186 | 35047 ft | 493 kts | 113° |
| 2026-04-24 05:25 | 42.51442 | 42.09038 | 35058 ft | 494 kts | 113° |
| 2026-04-24 05:26 | 42.49346 | 42.17876 | 35046 ft | 495 kts | 113° |
| 2026-04-24 05:26 | 42.47230 | 42.26776 | 35063 ft | 496 kts | 113° |
| 2026-04-24 05:27 | 42.45127 | 42.35593 | 35041 ft | 495 kts | 113° |
| 2026-04-24 05:27 | 42.43002 | 42.44453 | 35049 ft | 495 kts | 113° |
| 2026-04-24 05:28 | 42.40864 | 42.53338 | 35038 ft | 496 kts | 113° |
| 2026-04-24 05:28 | 42.38714 | 42.62245 | 35033 ft | 496 kts | 113° |
| 2026-04-24 05:29 | 42.36574 | 42.71084 | 35015 ft | 496 kts | 114° |
| 2026-04-24 05:29 | 42.35511 | 42.75476 | 34630 ft | 498 kts | 114° |
| 2026-04-24 05:29 | 42.34429 | 42.79939 | 34131 ft | 499 kts | 115° |
| 2026-04-24 05:29 | 42.33347 | 42.84385 | 33544 ft | 502 kts | 114° |
| 2026-04-24 05:30 | 42.32251 | 42.88871 | 32953 ft | 504 kts | 115° |
| 2026-04-24 05:30 | 42.31161 | 42.93319 | 32271 ft | 506 kts | 115° |
| 2026-04-24 05:30 | 42.30046 | 42.97863 | 31554 ft | 508 kts | 115° |
| 2026-04-24 05:30 | 42.28943 | 43.02349 | 30837 ft | 509 kts | 115° |
| 2026-04-24 05:31 | 42.27828 | 43.06869 | 30098 ft | 507 kts | 116° |
| 2026-04-24 05:31 | 42.26733 | 43.11347 | 29477 ft | 503 kts | 115° |
| 2026-04-24 05:31 | 42.25645 | 43.15836 | 28882 ft | 498 kts | 115° |
| 2026-04-24 05:31 | 42.24583 | 43.20235 | 28283 ft | 494 kts | 115° |
| 2026-04-24 05:32 | 42.23534 | 43.24572 | 27907 ft | 485 kts | 114° |
| 2026-04-24 05:32 | 42.22495 | 43.28871 | 27424 ft | 480 kts | 115° |
| 2026-04-24 05:32 | 42.21463 | 43.33132 | 26961 ft | 474 kts | 115° |
| 2026-04-24 05:32 | 42.20447 | 43.37312 | 26532 ft | 468 kts | 115° |
| 2026-04-24 05:33 | 42.19433 | 43.41466 | 26086 ft | 463 kts | 114° |
| 2026-04-24 05:33 | 42.18433 | 43.45553 | 25647 ft | 459 kts | 115° |
| 2026-04-24 05:33 | 42.17444 | 43.49596 | 25219 ft | 454 kts | 115° |
| 2026-04-24 05:34 | 42.15487 | 43.57544 | 24291 ft | 448 kts | 114° |
| 2026-04-24 05:34 | 42.14509 | 43.61512 | 23864 ft | 444 kts | 114° |
| 2026-04-24 05:34 | 42.13536 | 43.65463 | 23423 ft | 441 kts | 115° |
| 2026-04-24 05:34 | 42.12583 | 43.69346 | 23006 ft | 438 kts | 115° |
| 2026-04-24 05:35 | 42.11641 | 43.73178 | 22608 ft | 433 kts | 114° |
| 2026-04-24 05:35 | 42.10694 | 43.77016 | 22216 ft | 429 kts | 115° |
| 2026-04-24 05:35 | 42.09765 | 43.80772 | 21791 ft | 425 kts | 115° |
| 2026-04-24 05:35 | 42.08820 | 43.84574 | 21372 ft | 422 kts | 115° |
| 2026-04-24 05:36 | 42.07890 | 43.88310 | 20960 ft | 418 kts | 115° |
| 2026-04-24 05:36 | 42.06980 | 43.91960 | 20535 ft | 415 kts | 115° |
| 2026-04-24 05:36 | 42.06060 | 43.95645 | 20102 ft | 411 kts | 115° |
| 2026-04-24 05:36 | 42.05164 | 43.99238 | 19707 ft | 408 kts | 115° |
| 2026-04-24 05:37 | 42.04261 | 44.02830 | 19321 ft | 403 kts | 115° |
| 2026-04-24 05:37 | 42.03366 | 44.06398 | 18927 ft | 399 kts | 115° |
| 2026-04-24 05:37 | 42.02483 | 44.09888 | 18506 ft | 396 kts | 116° |
| 2026-04-24 05:37 | 42.01384 | 44.13200 | 18117 ft | 385 kts | 126° |
| 2026-04-24 05:38 | 41.99947 | 44.16212 | 17698 ft | 375 kts | 134° |
| 2026-04-24 05:38 | 41.98368 | 44.18934 | 17258 ft | 371 kts | 135° |
| 2026-04-24 05:38 | 41.96762 | 44.21610 | 16830 ft | 369 kts | 136° |
| 2026-04-24 05:38 | 41.95148 | 44.24294 | 16402 ft | 367 kts | 135° |
| 2026-04-24 05:39 | 41.93566 | 44.26939 | 15929 ft | 365 kts | 135° |
| 2026-04-24 05:39 | 41.91973 | 44.29611 | 15493 ft | 362 kts | 135° |
| 2026-04-24 05:39 | 41.90420 | 44.32224 | 15130 ft | 359 kts | 135° |
| 2026-04-24 05:39 | 41.88855 | 44.34851 | 14735 ft | 356 kts | 135° |
| 2026-04-24 05:40 | 41.87309 | 44.37433 | 14314 ft | 354 kts | 135° |
| 2026-04-24 05:40 | 41.85780 | 44.39988 | 13894 ft | 351 kts | 134° |
| 2026-04-24 05:40 | 41.84263 | 44.42530 | 13466 ft | 349 kts | 134° |
| 2026-04-24 05:40 | 41.82755 | 44.45058 | 13019 ft | 349 kts | 133° |
| 2026-04-24 05:41 | 41.81235 | 44.47605 | 12581 ft | 348 kts | 133° |
| 2026-04-24 05:41 | 41.79730 | 44.50129 | 12116 ft | 347 kts | 133° |
| 2026-04-24 05:41 | 41.78224 | 44.52660 | 11667 ft | 346 kts | 132° |
| 2026-04-24 05:41 | 41.76738 | 44.55155 | 11253 ft | 345 kts | 132° |
| 2026-04-24 05:42 | 41.75239 | 44.57671 | 10817 ft | 344 kts | 132° |
| 2026-04-24 05:42 | 41.73736 | 44.60187 | 10403 ft | 342 kts | 131° |
| 2026-04-24 05:42 | 41.72266 | 44.62645 | 10069 ft | 336 kts | 131° |
| 2026-04-24 05:42 | 41.70843 | 44.65024 | 9969 ft | 322 kts | 132° |
| 2026-04-24 05:43 | 41.69483 | 44.67302 | 9957 ft | 307 kts | 132° |
| 2026-04-24 05:43 | 41.68172 | 44.69498 | 9816 ft | 298 kts | 132° |
| 2026-04-24 05:43 | 41.66872 | 44.71667 | 9497 ft | 296 kts | 132° |
| 2026-04-24 05:43 | 41.65583 | 44.73815 | 9173 ft | 293 kts | 132° |
| 2026-04-24 05:44 | 41.64317 | 44.75925 | 8891 ft | 291 kts | 132° |
| 2026-04-24 05:44 | 41.63047 | 44.78034 | 8586 ft | 289 kts | 132° |
| 2026-04-24 05:44 | 41.61807 | 44.80090 | 8261 ft | 286 kts | 132° |
| 2026-04-24 05:44 | 41.60559 | 44.82153 | 7996 ft | 283 kts | 132° |
| 2026-04-24 05:45 | 41.59328 | 44.84194 | 7689 ft | 281 kts | 132° |
| 2026-04-24 05:45 | 41.58112 | 44.86208 | 7393 ft | 279 kts | 132° |
| 2026-04-24 05:45 | 41.56892 | 44.88221 | 7062 ft | 277 kts | 131° |
| 2026-04-24 05:45 | 41.55680 | 44.90224 | 6787 ft | 274 kts | 131° |
| 2026-04-24 05:46 | 41.54492 | 44.92190 | 6509 ft | 271 kts | 131° |
| 2026-04-24 05:46 | 41.53306 | 44.94152 | 6234 ft | 269 kts | 131° |
| 2026-04-24 05:46 | 41.52125 | 44.96105 | 5946 ft | 267 kts | 131° |
| 2026-04-24 05:46 | 41.50954 | 44.98036 | 5646 ft | 265 kts | 131° |
| 2026-04-24 05:47 | 41.49811 | 44.99916 | 5455 ft | 258 kts | 130° |
| 2026-04-24 05:47 | 41.48704 | 45.01741 | 5391 ft | 244 kts | 130° |
| 2026-04-24 05:47 | 41.47674 | 45.03450 | 5346 ft | 231 kts | 129° |
| 2026-04-24 05:47 | 41.46945 | 45.05333 | 5072 ft | 235 kts | 98° |
| 2026-04-24 05:48 | 41.47184 | 45.07476 | 4830 ft | 233 kts | 62° |
| 2026-04-24 05:48 | 41.48174 | 45.09113 | 4637 ft | 227 kts | 45° |
| 2026-04-24 05:48 | 41.49280 | 45.10576 | 4518 ft | 218 kts | 45° |
| 2026-04-24 05:48 | 41.50312 | 45.11971 | 4590 ft | 207 kts | 44° |
| 2026-04-24 05:49 | 41.51493 | 45.12907 | 4504 ft | 191 kts | 9° |
| 2026-04-24 05:49 | 41.52740 | 45.12796 | 4479 ft | 167 kts | 336° |
| 2026-04-24 05:49 | 41.53646 | 45.12021 | 4415 ft | 150 kts | 316° |
| 2026-04-24 05:49 | 41.54372 | 45.11085 | 4290 ft | 143 kts | 313° |
| 2026-04-24 05:50 | 41.55079 | 45.10141 | 4217 ft | 142 kts | 314° |
| 2026-04-24 05:50 | 41.55785 | 45.09216 | 4157 ft | 142 kts | 314° |
| 2026-04-24 05:50 | 41.56486 | 45.08312 | 4097 ft | 141 kts | 315° |
| 2026-04-24 05:50 | 41.57204 | 45.07391 | 3938 ft | 142 kts | 315° |
| 2026-04-24 05:51 | 41.57906 | 45.06484 | 3725 ft | 141 kts | 316° |
| 2026-04-24 05:51 | 41.58615 | 45.05576 | 3556 ft | 140 kts | 316° |
| 2026-04-24 05:51 | 41.59312 | 45.04680 | 3372 ft | 140 kts | 317° |
| 2026-04-24 05:51 | 41.60014 | 45.03766 | 3194 ft | 139 kts | 317° |
| 2026-04-24 05:52 | 41.60702 | 45.02884 | 3026 ft | 136 kts | 317° |
| 2026-04-24 05:52 | 41.61401 | 45.02049 | 2841 ft | 133 kts | 318° |
| 2026-04-24 05:52 | 41.62089 | 45.01228 | 2675 ft | 131 kts | 317° |
| 2026-04-24 05:52 | 41.62752 | 45.00402 | 2489 ft | 129 kts | 316° |
| 2026-04-24 05:53 | 41.63385 | 44.99581 | 2276 ft | 125 kts | 315° |
| 2026-04-24 05:53 | 41.64006 | 44.98785 | 2103 ft | 122 kts | 316° |
| 2026-04-24 05:53 | 41.64621 | 44.98019 | 1984 ft | 119 kts | 315° |
| 2026-04-24 05:53 | 41.65214 | 44.97258 | 1818 ft | 116 kts | 315° |
| 2026-04-24 05:54 | 41.65797 | 44.96527 | 1667 ft | 115 kts | 315° |
| 2026-04-24 05:54 | 41.66340 | 44.95838 | 1628 ft | 90 kts | 315° |
| 2026-04-24 05:54 | 41.66685 | 44.95397 | 1628 ft | 51 kts | 316° |
| 2026-04-24 05:54 | 41.66840 | 44.95201 | 1628 ft | 18 kts | 318° |
| 2026-04-24 05:55 | 41.66936 | 44.95240 | 1627 ft | 16 kts | 45° |
| 2026-04-24 05:55 | 41.67006 | 44.95332 | 1627 ft | 13 kts | 43° |
| 2026-04-24 05:55 | 41.67071 | 44.95414 | 1627 ft | 12 kts | 44° |
| 2026-04-24 05:55 | 41.67129 | 44.95490 | 1627 ft | 11 kts | 45° |
| 2026-04-24 05:56 | 41.67184 | 44.95559 | 1627 ft | 10 kts | 40° |
| 2026-04-24 05:56 | 41.67232 | 44.95630 | 1627 ft | 9 kts | 68° |
| 2026-04-24 05:56 | 41.67198 | 44.95713 | 1627 ft | 11 kts | 134° |
| 2026-04-24 05:56 | 41.67137 | 44.95799 | 1627 ft | 13 kts | 133° |
| 2026-04-24 05:57 | 41.67079 | 44.95885 | 1627 ft | 11 kts | 124° |
| 2026-04-24 05:57 | 41.67039 | 44.95966 | 1627 ft | 7 kts | 130° |
| 2026-04-24 05:57 | 41.67002 | 44.96021 | 1627 ft | 7 kts | 134° |
| 2026-04-24 05:57 | 41.66991 | 44.96079 | 1627 ft | 5 kts | 64° |
| 2026-04-24 05:58 | 41.67011 | 44.96104 | 1627 ft | 3 kts | 41° |
| 2026-04-24 05:58 | 41.67028 | 44.96125 | 1627 ft | 0 kts | 43° |
| 2026-04-24 05:58 | 41.67030 | 44.96126 | 1627 ft | 0 kts | 42° |